createdAt,value
2017-09-26T00:00:03.857Z,28.63
2017-09-26T00:02:33.584Z,33.90
2017-09-26T00:05:02.568Z,34.30
2017-09-26T00:07:31.534Z,32.30
2017-09-26T00:10:00.533Z,30.07
2017-09-26T00:12:29.498Z,32.23
2017-09-26T00:14:58.482Z,32.73
2017-09-26T00:17:27.447Z,38.30
2017-09-26T00:19:56.436Z,36.60
2017-09-26T00:22:25.420Z,35.63
2017-09-26T00:24:54.474Z,35.07
2017-09-26T00:27:23.452Z,38.33
2017-09-26T00:29:52.444Z,35.70
2017-09-26T00:32:21.405Z,34.77
2017-09-26T00:34:50.387Z,36.00
2017-09-26T00:37:19.410Z,34.83
2017-09-26T00:39:49.151Z,34.30
2017-09-26T00:42:18.108Z,35.50
2017-09-26T00:44:47.106Z,33.73
2017-09-26T00:47:16.054Z,32.90
2017-09-26T00:49:45.031Z,30.97
2017-09-26T00:52:13.998Z,31.07
2017-09-26T00:54:43.041Z,34.93
2017-09-26T00:57:12.001Z,36.63
2017-09-26T00:59:40.988Z,34.97
2017-09-26T01:02:09.950Z,35.43
2017-09-26T01:04:47.400Z,34.73
2017-09-26T01:07:22.115Z,35.87
2017-09-26T01:09:51.094Z,33.57
2017-09-26T01:12:20.046Z,33.20
2017-09-26T01:14:49.002Z,32.30
2017-09-26T01:17:17.976Z,31.40
2017-09-26T01:19:46.949Z,35.30
2017-09-26T01:22:15.929Z,34.67
2017-09-26T01:24:44.909Z,35.97
2017-09-26T01:27:13.868Z,36.07
2017-09-26T01:29:42.858Z,38.43
2017-09-26T01:32:11.827Z,33.87
2017-09-26T01:34:40.809Z,37.47
2017-09-26T01:37:10.640Z,34.97
2017-09-26T01:39:39.647Z,35.63
2017-09-26T01:42:08.604Z,36.50
2017-09-26T01:44:37.587Z,39.90
2017-09-26T01:47:06.532Z,31.93
2017-09-26T01:49:35.560Z,40.80
2017-09-26T01:52:04.513Z,31.87
2017-09-26T01:54:34.277Z,38.63
2017-09-26T01:57:03.830Z,32.53
2017-09-26T01:59:34.256Z,31.73
2017-09-26T02:02:03.636Z,34.37
2017-09-26T02:04:33.004Z,32.03
2017-09-26T02:07:01.995Z,34.33
2017-09-26T02:09:30.963Z,36.57
2017-09-26T02:12:00.699Z,38.00
2017-09-26T02:14:29.695Z,38.20
2017-09-26T02:16:59.080Z,33.77
2017-09-26T02:19:28.054Z,32.83
2017-09-26T02:21:57.016Z,32.97
2017-09-26T02:24:26.127Z,31.50
2017-09-26T02:26:55.987Z,29.57
2017-09-26T02:29:24.977Z,31.20
2017-09-26T02:31:54.064Z,32.57
2017-09-26T02:34:23.054Z,30.70
2017-09-26T02:36:52.024Z,39.00
2017-09-26T02:39:21.016Z,35.17
2017-09-26T02:41:49.981Z,28.20
2017-09-26T02:44:19.726Z,32.30
2017-09-26T02:46:48.681Z,32.67
2017-09-26T02:49:17.984Z,30.27
2017-09-26T02:51:46.961Z,33.90
2017-09-26T02:54:15.936Z,31.60
2017-09-26T02:56:44.938Z,35.70
2017-09-26T02:59:13.900Z,33.80
2017-09-26T03:01:42.854Z,31.07
2017-09-26T03:04:11.839Z,32.67
2017-09-26T03:06:41.594Z,35.60
2017-09-26T03:09:10.590Z,31.37
2017-09-26T03:11:39.569Z,30.80
2017-09-26T03:14:08.541Z,29.60
2017-09-26T03:16:38.343Z,31.07
2017-09-26T03:19:07.305Z,36.03
2017-09-26T03:21:36.296Z,32.83
2017-09-26T03:24:05.250Z,31.30
2017-09-26T03:26:34.217Z,32.50
2017-09-26T03:29:03.960Z,31.67
2017-09-26T03:31:32.941Z,33.63
2017-09-26T03:34:01.904Z,32.40
2017-09-26T03:36:30.881Z,29.50
2017-09-26T03:39:00.601Z,30.17
2017-09-26T03:41:29.595Z,32.13
2017-09-26T03:43:59.342Z,28.03
2017-09-26T03:46:28.324Z,30.63
2017-09-26T03:48:57.279Z,30.90
2017-09-26T03:51:27.040Z,33.87
2017-09-26T03:53:56.021Z,31.80
2017-09-26T03:56:24.977Z,28.30
2017-09-26T03:58:54.730Z,31.20
2017-09-26T04:01:23.696Z,27.20
2017-09-26T04:03:52.668Z,29.47
2017-09-26T04:06:22.419Z,28.50
2017-09-26T04:08:51.405Z,27.07
2017-09-26T04:11:20.364Z,28.10
2017-09-26T04:13:50.104Z,30.53
2017-09-26T04:16:19.059Z,27.13
2017-09-26T04:18:48.819Z,31.40
2017-09-26T04:21:17.776Z,30.17
2017-09-26T04:23:47.528Z,28.73
2017-09-26T04:26:16.498Z,28.70
2017-09-26T04:28:45.587Z,28.00
2017-09-26T04:31:14.539Z,29.73
2017-09-26T04:33:43.527Z,27.33
2017-09-26T04:36:12.519Z,29.80
2017-09-26T04:38:41.548Z,27.27
2017-09-26T04:41:10.495Z,26.50
2017-09-26T04:43:39.522Z,30.03
2017-09-26T04:46:09.271Z,34.23
2017-09-26T04:48:38.234Z,31.70
2017-09-26T04:51:07.221Z,30.00
2017-09-26T04:53:36.200Z,27.60
2017-09-26T04:56:05.985Z,28.60
2017-09-26T04:58:34.953Z,29.10
2017-09-26T05:01:03.979Z,31.40
2017-09-26T05:03:33.706Z,28.60
2017-09-26T05:06:02.677Z,25.40
2017-09-26T05:08:31.672Z,26.43
2017-09-26T05:11:00.640Z,29.60
2017-09-26T05:13:29.636Z,27.13
2017-09-26T05:15:58.627Z,28.40
2017-09-26T05:18:27.583Z,26.80
2017-09-26T05:20:56.583Z,29.63
2017-09-26T05:23:25.536Z,30.40
2017-09-26T05:25:55.321Z,27.20
2017-09-26T05:28:24.284Z,31.87
2017-09-26T05:30:53.287Z,28.17
2017-09-26T05:33:22.649Z,29.00
2017-09-26T05:35:51.641Z,29.60
2017-09-26T05:38:20.640Z,28.67
2017-09-26T05:40:49.589Z,26.23
2017-09-26T05:43:18.573Z,29.63
2017-09-26T05:45:47.516Z,27.40
2017-09-26T05:48:16.508Z,29.30
2017-09-26T05:50:45.465Z,29.00
2017-09-26T05:53:14.457Z,26.70
2017-09-26T05:55:43.433Z,26.27
2017-09-26T05:58:12.410Z,27.50
2017-09-26T06:00:41.446Z,28.40
2017-09-26T06:03:11.233Z,30.00
2017-09-26T06:05:40.616Z,29.10
2017-09-26T06:08:09.601Z,28.07
2017-09-26T06:10:38.668Z,30.67
2017-09-26T06:13:07.677Z,26.07
2017-09-26T06:15:36.686Z,28.57
2017-09-26T06:18:05.665Z,26.73
2017-09-26T06:20:35.414Z,21.10
2017-09-26T06:23:05.039Z,23.17
2017-09-26T06:25:34.016Z,26.17
2017-09-26T06:28:03.432Z,26.93
2017-09-26T06:30:33.148Z,26.77
2017-09-26T06:33:02.889Z,28.60
2017-09-26T06:35:31.868Z,27.47
2017-09-26T06:38:00.843Z,29.57
2017-09-26T06:40:30.139Z,24.43
2017-09-26T06:43:00.408Z,27.97
2017-09-26T06:45:30.901Z,30.00
2017-09-26T06:47:59.883Z,31.70
2017-09-26T06:50:28.879Z,27.97
2017-09-26T06:52:57.885Z,27.17
2017-09-26T06:55:26.848Z,27.83
2017-09-26T06:57:55.968Z,29.70
2017-09-26T07:00:25.294Z,28.87
2017-09-26T07:02:54.268Z,29.00
2017-09-26T07:05:24.286Z,28.57
2017-09-26T07:07:53.247Z,27.63
2017-09-26T07:10:23.013Z,27.47
2017-09-26T07:12:52.784Z,25.60
2017-09-26T07:15:21.776Z,25.77
2017-09-26T07:17:50.735Z,26.70
2017-09-26T07:20:21.443Z,29.10
2017-09-26T07:22:51.357Z,33.73
2017-09-26T07:25:20.344Z,24.47
2017-09-26T07:27:49.564Z,24.57
2017-09-26T07:30:18.540Z,22.70
2017-09-26T07:32:48.287Z,26.73
2017-09-26T07:35:19.083Z,23.63
2017-09-26T07:37:48.759Z,23.13
2017-09-26T07:40:18.671Z,23.57
2017-09-26T07:42:47.627Z,24.83
2017-09-26T07:45:19.088Z,19.40
2017-09-26T07:47:48.182Z,23.80
2017-09-26T07:50:18.365Z,22.40
2017-09-26T07:52:47.323Z,22.80
2017-09-26T07:55:17.181Z,23.87
2017-09-26T07:57:46.152Z,22.90
2017-09-26T08:00:16.125Z,23.97
2017-09-26T08:02:45.106Z,24.87
2017-09-26T08:05:15.737Z,20.90
2017-09-26T08:07:45.791Z,20.80
2017-09-26T08:10:14.792Z,22.35
2017-09-26T08:12:44.010Z,21.07
2017-09-26T08:15:13.624Z,23.60
2017-09-26T08:17:42.568Z,24.80
2017-09-26T08:20:11.575Z,24.30
2017-09-26T08:22:40.593Z,26.90
2017-09-26T08:25:09.569Z,24.00
2017-09-26T08:27:38.606Z,22.57
2017-09-26T08:30:08.345Z,23.30
2017-09-26T08:32:37.337Z,25.37
2017-09-26T08:35:06.341Z,30.67
2017-09-26T08:37:35.356Z,28.40
2017-09-26T08:40:04.323Z,26.20
2017-09-26T08:42:33.285Z,23.00
2017-09-26T08:45:02.236Z,23.90
2017-09-26T08:47:31.502Z,25.70
2017-09-26T08:50:00.462Z,22.53
2017-09-26T08:52:29.491Z,25.27
2017-09-26T08:54:58.435Z,21.33
2017-09-26T08:57:28.172Z,22.97
2017-09-26T08:59:58.078Z,22.77
2017-09-26T09:02:27.804Z,20.53
2017-09-26T09:04:56.790Z,22.40
2017-09-26T09:07:25.866Z,22.70
2017-09-26T09:09:55.609Z,22.80
2017-09-26T09:12:25.376Z,21.00
2017-09-26T09:14:54.355Z,24.77
2017-09-26T09:17:23.308Z,22.40
2017-09-26T09:19:52.291Z,22.83
2017-09-26T09:22:21.982Z,23.03
2017-09-26T09:24:51.744Z,20.67
2017-09-26T09:27:21.565Z,25.27
2017-09-26T09:29:50.553Z,23.87
2017-09-26T09:32:19.670Z,22.90
2017-09-26T09:34:50.189Z,21.80
2017-09-26T09:37:19.748Z,21.83
2017-09-26T09:39:48.749Z,18.67
2017-09-26T09:42:18.132Z,20.63
2017-09-26T09:44:47.093Z,23.80
2017-09-26T09:47:16.816Z,23.10
2017-09-26T09:49:46.740Z,24.13
2017-09-26T09:52:16.611Z,24.53
2017-09-26T09:54:45.592Z,21.80
2017-09-26T09:57:14.559Z,20.23
2017-09-26T09:59:43.692Z,22.03
2017-09-26T10:02:12.683Z,22.67
2017-09-26T10:04:42.423Z,27.03
2017-09-26T10:07:11.415Z,25.27
2017-09-26T10:09:40.373Z,26.23
2017-09-26T10:12:09.355Z,25.37
2017-09-26T10:14:39.122Z,24.70
2017-09-26T10:17:08.152Z,26.80
2017-09-26T10:19:37.459Z,31.80
2017-09-26T10:22:06.517Z,28.80
2017-09-26T10:24:35.557Z,26.20
2017-09-26T10:27:04.505Z,21.63
2017-09-26T10:29:34.988Z,23.10
2017-09-26T10:32:03.953Z,23.20
2017-09-26T10:34:32.936Z,19.80
2017-09-26T10:37:01.906Z,18.67
2017-09-26T10:39:30.872Z,20.93
2017-09-26T10:42:03.204Z,16.90
2017-09-26T10:44:32.421Z,16.20
2017-09-26T10:47:01.372Z,20.40
2017-09-26T10:49:30.371Z,19.40
2017-09-26T10:51:59.345Z,21.57
2017-09-26T10:54:28.342Z,17.50
2017-09-26T10:56:57.315Z,19.33
2017-09-26T10:59:27.065Z,17.07
2017-09-26T11:01:56.028Z,17.33
2017-09-26T11:04:25.011Z,18.80
2017-09-26T11:06:53.996Z,15.53
2017-09-26T11:09:22.971Z,16.77
2017-09-26T11:11:51.957Z,18.50
2017-09-26T11:14:21.760Z,17.97
2017-09-26T11:16:51.464Z,16.07
2017-09-26T11:19:20.464Z,15.53
2017-09-26T11:21:50.184Z,16.50
2017-09-26T11:24:19.153Z,14.77
2017-09-26T11:26:48.140Z,15.70
2017-09-26T11:29:17.507Z,18.23
2017-09-26T11:31:46.481Z,15.30
2017-09-26T11:34:15.440Z,15.60
2017-09-26T11:36:45.188Z,19.60
2017-09-26T11:39:14.141Z,17.87
2017-09-26T11:41:43.909Z,18.20
2017-09-26T11:44:13.280Z,17.20
2017-09-26T11:46:42.271Z,17.40
2017-09-26T11:49:11.340Z,20.80
2017-09-26T11:51:41.677Z,17.70
2017-09-26T11:54:11.848Z,18.50
2017-09-26T11:56:41.834Z,18.13
2017-09-26T11:59:10.796Z,16.97
2017-09-26T12:01:41.218Z,15.10
2017-09-26T12:04:11.965Z,13.90
2017-09-26T12:06:42.409Z,16.60
2017-09-26T12:09:11.361Z,17.63
2017-09-26T12:11:42.116Z,15.60
2017-09-26T12:14:11.076Z,17.60
2017-09-26T12:16:40.391Z,16.93
2017-09-26T12:19:09.349Z,16.87
2017-09-26T12:21:38.348Z,18.47
2017-09-26T12:24:09.577Z,23.23
2017-09-26T12:26:38.775Z,17.90
2017-09-26T12:29:09.034Z,18.10
2017-09-26T12:31:39.096Z,17.33
2017-09-26T12:34:08.911Z,16.43
2017-09-26T12:36:37.917Z,16.97
2017-09-26T12:39:06.872Z,17.77
2017-09-26T12:41:35.951Z,15.70
2017-09-26T12:44:05.646Z,16.30
2017-09-26T12:46:34.616Z,15.27
2017-09-26T12:49:05.895Z,16.77
2017-09-26T12:51:34.938Z,18.67
2017-09-26T12:54:04.884Z,15.90
2017-09-26T12:56:33.876Z,15.13
2017-09-26T12:59:02.830Z,16.33
2017-09-26T13:01:31.870Z,15.87
2017-09-26T13:04:00.818Z,16.40
2017-09-26T13:06:30.563Z,15.27
2017-09-26T13:09:00.318Z,16.43
2017-09-26T13:11:29.423Z,18.57
2017-09-26T13:13:58.387Z,16.73
2017-09-26T13:16:28.201Z,16.17
2017-09-26T13:18:57.200Z,16.97
2017-09-26T13:21:26.172Z,18.80
2017-09-26T13:23:56.000Z,15.93
2017-09-26T13:26:27.701Z,17.73
2017-09-26T13:28:56.663Z,19.57
2017-09-26T13:31:25.708Z,18.43
2017-09-26T13:33:55.463Z,19.03
2017-09-26T13:36:24.418Z,20.00
2017-09-26T13:38:54.236Z,19.27
2017-09-26T13:41:23.997Z,21.10
2017-09-26T13:43:53.296Z,17.80
2017-09-26T13:46:22.248Z,19.73
2017-09-26T13:48:51.244Z,21.63
2017-09-26T13:51:20.208Z,17.37
2017-09-26T13:53:49.976Z,19.63
2017-09-26T13:56:19.684Z,18.53
2017-09-26T13:58:49.033Z,18.60
2017-09-26T14:01:18.540Z,21.20
2017-09-26T14:03:48.296Z,18.70
2017-09-26T14:06:17.280Z,21.70
2017-09-26T14:08:46.235Z,20.33
2017-09-26T14:11:15.636Z,20.50
2017-09-26T14:13:45.376Z,20.30
2017-09-26T14:16:14.336Z,26.40
2017-09-26T14:18:43.712Z,19.93
2017-09-26T14:21:12.731Z,16.37
2017-09-26T14:23:42.477Z,23.07
2017-09-26T14:26:12.598Z,19.87
2017-09-26T14:28:41.558Z,19.03
2017-09-26T14:31:11.360Z,19.60
2017-09-26T14:33:40.410Z,17.90
2017-09-26T14:36:09.399Z,22.10
2017-09-26T14:38:38.530Z,17.57
2017-09-26T14:41:07.509Z,17.30
2017-09-26T14:43:36.529Z,18.27
2017-09-26T14:46:05.900Z,20.27
2017-09-26T14:48:34.912Z,17.80
2017-09-26T14:51:04.668Z,20.40
2017-09-26T14:53:33.625Z,17.27
2017-09-26T14:56:03.368Z,19.80
2017-09-26T14:58:32.412Z,18.53
2017-09-26T15:01:01.374Z,20.60
2017-09-26T15:03:31.536Z,21.20
2017-09-26T15:06:01.427Z,20.57
2017-09-26T15:08:30.480Z,19.90
2017-09-26T15:11:00.283Z,22.17
2017-09-26T15:13:29.837Z,18.47
2017-09-26T15:15:58.843Z,20.07
2017-09-26T15:18:27.834Z,19.53
2017-09-26T15:20:56.797Z,22.47
2017-09-26T15:23:25.810Z,20.67
2017-09-26T15:25:55.779Z,22.10
2017-09-26T15:28:25.204Z,21.97
2017-09-26T15:30:54.711Z,20.43
2017-09-26T15:33:23.880Z,23.13
2017-09-26T15:35:52.873Z,20.93
2017-09-26T15:38:22.657Z,22.67
2017-09-26T15:40:52.164Z,23.40
2017-09-26T15:43:21.547Z,21.90
2017-09-26T15:45:50.546Z,23.27
2017-09-26T15:48:25.156Z,24.60
2017-09-26T15:50:54.970Z,23.63
2017-09-26T15:53:27.588Z,23.60
2017-09-26T15:55:56.627Z,27.33
2017-09-26T15:58:26.860Z,22.30
2017-09-26T16:00:56.242Z,23.63
2017-09-26T16:03:26.592Z,27.33
2017-09-26T16:05:56.425Z,25.00
2017-09-26T16:08:26.858Z,26.30
2017-09-26T16:10:55.840Z,29.12
2017-09-26T16:13:24.869Z,26.93
2017-09-26T16:15:54.263Z,26.63
2017-09-26T16:18:24.363Z,28.40
2017-09-26T16:20:53.792Z,32.20
2017-09-26T16:23:23.619Z,28.73
2017-09-26T16:25:53.088Z,30.47
2017-09-26T16:28:22.448Z,33.17
2017-09-26T16:30:51.435Z,32.83
2017-09-26T16:33:21.796Z,31.73
2017-09-26T16:35:50.759Z,29.90
2017-09-26T16:38:20.135Z,28.27
2017-09-26T16:40:49.455Z,31.60
2017-09-26T16:43:18.434Z,29.70
2017-09-26T16:45:47.524Z,28.00
2017-09-26T16:48:16.584Z,27.87
2017-09-26T16:50:45.937Z,31.67
2017-09-26T16:53:14.936Z,30.03
2017-09-26T16:55:45.627Z,35.00
2017-09-26T16:58:15.746Z,32.27
2017-09-26T17:00:44.713Z,30.87
2017-09-26T17:03:13.693Z,31.93
2017-09-26T17:05:43.117Z,30.00
2017-09-26T17:08:13.425Z,27.40
2017-09-26T17:10:42.455Z,32.90
2017-09-26T17:13:11.404Z,31.53
2017-09-26T17:15:41.212Z,29.70
2017-09-26T17:18:10.958Z,30.97
2017-09-26T17:20:39.973Z,26.53
2017-09-26T17:23:10.444Z,30.93
2017-09-26T17:25:40.181Z,29.50
2017-09-26T17:28:09.232Z,33.07
2017-09-26T17:30:38.188Z,31.87
2017-09-26T17:33:08.686Z,35.33
2017-09-26T17:35:38.428Z,31.57
2017-09-26T17:38:07.398Z,35.70
2017-09-26T17:40:37.136Z,32.63
2017-09-26T17:43:06.150Z,32.33
2017-09-26T17:45:35.884Z,36.40
2017-09-26T17:48:04.954Z,37.23
2017-09-26T17:50:34.707Z,30.93
2017-09-26T17:53:03.680Z,30.93
2017-09-26T17:55:32.696Z,31.50
2017-09-26T17:58:01.686Z,31.13
2017-09-26T18:00:30.664Z,34.87
2017-09-26T18:02:59.645Z,30.30
2017-09-26T18:05:28.683Z,33.80
2017-09-26T18:07:58.460Z,30.53
2017-09-26T18:10:28.649Z,28.93
2017-09-26T18:12:58.095Z,31.70
2017-09-26T18:15:27.105Z,32.80
2017-09-26T18:17:56.123Z,31.43
2017-09-26T18:20:25.092Z,35.03
2017-09-26T18:22:54.096Z,36.00
2017-09-26T18:25:23.051Z,28.73
2017-09-26T18:27:52.040Z,32.00
2017-09-26T18:30:21.031Z,31.70
2017-09-26T18:32:50.130Z,32.40
2017-09-26T18:35:19.212Z,32.40
2017-09-26T18:37:48.204Z,30.03
2017-09-26T18:40:17.216Z,27.33
2017-09-26T18:42:46.214Z,33.23
2017-09-26T18:45:15.954Z,30.20
2017-09-26T18:47:45.371Z,28.67
2017-09-26T18:50:16.016Z,29.97
2017-09-26T18:52:45.686Z,32.93
2017-09-26T18:55:14.655Z,29.93
2017-09-26T18:57:43.694Z,35.13
2017-09-26T19:00:13.446Z,30.97
2017-09-26T19:02:42.459Z,31.93
2017-09-26T19:05:11.489Z,30.83
2017-09-26T19:07:40.570Z,29.53
2017-09-26T19:10:09.611Z,34.27
2017-09-26T19:12:38.600Z,32.13
2017-09-26T19:15:07.651Z,32.30
2017-09-26T19:17:36.658Z,35.77
2017-09-26T19:20:06.040Z,35.27
2017-09-26T19:22:35.058Z,33.40
2017-09-26T19:25:04.456Z,36.33
2017-09-26T19:27:34.239Z,33.97
2017-09-26T19:30:03.819Z,34.37
2017-09-26T19:32:33.630Z,37.40
2017-09-26T19:35:02.676Z,31.70
2017-09-26T19:37:32.514Z,34.30
2017-09-26T19:40:01.920Z,32.90
2017-09-26T19:42:30.917Z,33.53
2017-09-26T19:44:59.905Z,31.47
2017-09-26T19:47:28.941Z,32.77
2017-09-26T19:49:57.926Z,31.07
2017-09-26T19:52:26.920Z,37.70
2017-09-26T19:54:55.915Z,30.50
2017-09-26T19:57:24.945Z,31.43
2017-09-26T19:59:54.721Z,31.20
2017-09-26T20:02:23.804Z,31.63
2017-09-26T20:04:52.785Z,30.83
2017-09-26T20:07:21.777Z,34.50
2017-09-26T20:09:50.769Z,33.07
2017-09-26T20:12:19.780Z,32.17
2017-09-26T20:14:49.135Z,31.63
2017-09-26T20:17:18.216Z,31.30
2017-09-26T20:19:47.960Z,33.50
2017-09-26T20:22:16.956Z,29.73
2017-09-26T20:24:45.920Z,34.60
2017-09-26T20:27:14.877Z,38.20
2017-09-26T20:29:43.857Z,34.83
2017-09-26T20:32:12.833Z,33.47
2017-09-26T20:34:42.825Z,32.40
2017-09-26T20:37:12.615Z,30.90
2017-09-26T20:39:41.563Z,33.83
2017-09-26T20:42:11.311Z,28.87
2017-09-26T20:44:40.536Z,38.13
2017-09-26T20:47:09.514Z,33.33
2017-09-26T20:49:39.258Z,31.93
2017-09-26T20:52:08.662Z,36.23
2017-09-26T20:54:37.632Z,30.97
2017-09-26T20:57:06.584Z,33.93
2017-09-26T20:59:35.589Z,30.80
2017-09-26T22:17:49.571Z,48.03
2017-09-26T22:20:19.620Z,40.83
2017-09-26T22:22:49.370Z,41.13
2017-09-26T22:25:18.341Z,43.43
2017-09-26T22:27:48.673Z,48.23
2017-09-26T22:30:18.700Z,44.70
2017-09-26T22:32:47.708Z,38.33
2017-09-26T22:35:16.680Z,39.57
2017-09-26T22:37:46.416Z,44.63
2017-09-26T22:40:15.363Z,40.27
2017-09-26T22:42:45.428Z,39.67
2017-09-26T22:45:16.093Z,43.07
2017-09-26T22:47:45.850Z,35.80
2017-09-26T22:50:14.851Z,38.57
2017-09-26T22:55:19.761Z,41.70
2017-09-26T22:57:48.736Z,39.80
2017-09-26T23:00:21.797Z,39.27
2017-09-26T23:02:50.749Z,45.27
2017-09-26T23:05:19.751Z,38.10
2017-09-26T23:07:48.709Z,36.80
2017-09-26T23:10:17.685Z,40.47
2017-09-26T23:12:47.397Z,42.40
2017-09-26T23:15:17.187Z,38.97
2017-09-26T23:17:46.140Z,42.07
2017-09-26T23:20:15.144Z,38.63
2017-09-26T23:22:44.092Z,39.03
2017-09-26T23:25:13.827Z,37.20
2017-09-26T23:27:42.841Z,37.40
2017-09-26T23:30:11.888Z,39.43
2017-09-26T23:32:41.631Z,36.97
2017-09-26T23:35:10.612Z,41.67
2017-09-26T23:37:39.580Z,41.60
2017-09-26T23:40:09.325Z,37.53
2017-09-26T23:42:38.301Z,37.40
2017-09-26T23:45:08.093Z,43.17
2017-09-26T23:47:37.847Z,37.90
2017-09-26T23:50:06.814Z,42.73
2017-09-26T23:52:35.860Z,45.03
2017-09-26T23:55:04.822Z,44.90
2017-09-26T23:57:33.790Z,43.00
